Eastsound, WA

7:50 PM PST on December 09, 2016 (GMT -0800)
Orcas Island

Weather History for KORS - December, 2012

Change the Weather History Date:

Saturday, December 1, 2012

  Actual Average (KFHR) Record (KFHR)
Temperature  
Mean Temperature 48 °F -  
Max Temperature 51 °F 45 °F 51 °F (2000)
Min Temperature 46 °F 36 °F 21 °F (2014)
Degree Days  
Heating Degree Days 16    
Moisture  
Dew Point 44 °F    
Average Humidity 84    
Maximum Humidity 100    
Minimum Humidity 66    
Precipitation  
Precipitation 0.16 in - - ()
Sea Level Pressure  
Sea Level Pressure 29.41 in    
Wind  
Wind Speed 11 mph (South)    
Max Wind Speed 16 mph    
Max Gust Speed 32 mph    
Visibility 9 miles    
Events Rain    
Averages and records for this station are not official NWS values.
T = Trace of Precipitation, MM = Missing Value Source: NWS Daily Summary

Daily Weather History Graph

Daily Weather History Graph

Search for Another Location

Airport or City:

Trip Planner

Search our weather history database for the weather conditions in past years. The results will help you decide how hot, cold, wet, or windy it might be!

Date:

Astronomy

Dec. 01, 2012 Rise Set
Actual Time 7:43 AM PST 4:17 PM PST
Civil Twilight 7:07 AM PST 4:53 PM PST
Nautical Twilight 6:28 AM PST 5:33 PM PST
Astronomical Twilight 5:50 AM PST 6:11 PM PST
Moon 7:17 PM PST (12/1) 9:56 AM PST (12/1)
Length of Visible Light 9h 46m
Length of Day
8h 33m
Waning Gibbous, 91% of the Moon is Illuminated
Dec 1
Waning Gibbous
Dec 6
Last Quarter
Dec 13
New
Dec 19
First Quarter
Dec 28
Full

Hourly Weather History & Observations

Time (PST) Temp. Windchill Dew Point Humidity Pressure Visibility Wind Dir Wind Speed Gust Speed Precip Events Conditions
12:15 AM 50.0 °F - 46.4 °F 87% 29.30 in 9.0 mi South 13.8 mph 23.0 mph N/A Rain Light Rain
12:35 AM 50.0 °F - 46.4 °F 87% 29.30 in 6.0 mi SSE 8.1 mph 21.9 mph N/A Rain Light Rain
12:55 AM 50.0 °F - 44.6 °F 82% 29.29 in 10.0 mi SSE 12.7 mph 25.3 mph N/A Rain Light Rain
1:15 AM 50.0 °F - 42.8 °F 76% 29.27 in 10.0 mi SSE 11.5 mph 26.5 mph N/A Rain Light Rain
1:35 AM 50.0 °F - 44.6 °F 82% 29.27 in 10.0 mi SSE 11.5 mph 23.0 mph N/A   Scattered Clouds
1:55 AM 50.0 °F - 44.6 °F 82% 29.27 in 10.0 mi SSE 12.7 mph 25.3 mph N/A   Mostly Cloudy
2:15 AM 50.0 °F - 44.6 °F 82% 29.27 in 10.0 mi South 10.4 mph 23.0 mph N/A   Overcast
2:35 AM 50.0 °F - 46.4 °F 87% 29.27 in 10.0 mi South 11.5 mph 20.7 mph N/A   Overcast
2:55 AM 51.8 °F - 44.6 °F 76% 29.27 in 10.0 mi South 11.5 mph 32.2 mph N/A   Overcast
3:15 AM 50.0 °F - 44.6 °F 82% 29.27 in 10.0 mi South 11.5 mph 26.5 mph N/A   Scattered Clouds
3:35 AM 50.0 °F - 42.8 °F 76% 29.28 in 10.0 mi South 11.5 mph 25.3 mph N/A   Scattered Clouds
3:55 AM 50.0 °F - 44.6 °F 82% 29.28 in 10.0 mi South 11.5 mph 24.2 mph N/A   Partly Cloudy
4:15 AM 50.0 °F - 44.6 °F 82% 29.29 in 10.0 mi South 13.8 mph 26.5 mph N/A Rain Light Rain
4:35 AM 48.2 °F - 44.6 °F 87% 29.32 in 10.0 mi South 13.8 mph 26.5 mph N/A Rain Light Rain
4:55 AM 48.2 °F - 44.6 °F 87% 29.34 in 5.0 mi South 11.5 mph 18.4 mph N/A Rain Light Rain
5:15 AM 46.4 °F 41.9 °F 44.6 °F 93% 29.37 in 3.0 mi SSW 9.2 mph 18.4 mph N/A Rain Rain
5:35 AM 46.4 °F 40.7 °F 44.6 °F 93% 29.38 in 9.0 mi SSW 12.7 mph - 0.01 in Rain Light Rain
5:55 AM 46.4 °F 42.9 °F 44.6 °F 93% 29.39 in 10.0 mi South 6.9 mph - 0.01 in   Scattered Clouds
6:15 AM 46.4 °F 41.5 °F 44.6 °F 93% 29.41 in 10.0 mi SSW 10.4 mph - N/A   Clear
6:35 AM 46.4 °F 41.9 °F 44.6 °F 93% 29.44 in 10.0 mi SSW 9.2 mph 17.3 mph N/A   Partly Cloudy
6:55 AM 48.2 °F - 44.6 °F 87% 29.47 in 5.0 mi SW 8.1 mph 16.1 mph N/A Rain Light Rain
7:15 AM 46.4 °F 43.5 °F 44.6 °F 93% 29.48 in 8.0 mi South 5.8 mph - N/A Rain Light Rain
7:35 AM 46.4 °F 44.3 °F 44.6 °F 93% 29.49 in 10.0 mi South 4.6 mph - N/A   Partly Cloudy
7:55 AM 46.4 °F 45.2 °F 46.4 °F 100% 29.50 in 10.0 mi South 3.5 mph - N/A   Partly Cloudy
8:15 AM 46.4 °F 44.3 °F 46.4 °F 100% 29.51 in 10.0 mi South 4.6 mph - N/A   Clear
8:35 AM 46.4 °F 43.5 °F 46.4 °F 100% 29.51 in 10.0 mi South 5.8 mph - N/A   Partly Cloudy
8:55 AM 46.4 °F 41.5 °F 44.6 °F 93% 29.52 in 10.0 mi South 10.4 mph - N/A   Clear
9:15 AM 48.2 °F - 44.6 °F 87% 29.52 in 10.0 mi South 4.6 mph - N/A   Partly Cloudy
9:35 AM 48.2 °F - 44.6 °F 87% 29.52 in 10.0 mi SSE 6.9 mph - N/A   Partly Cloudy
9:55 AM 48.2 °F - 44.6 °F 87% 29.52 in 10.0 mi South 13.8 mph 19.6 mph N/A   Scattered Clouds
10:15 AM 48.2 °F - 44.6 °F 87% 29.52 in 10.0 mi South 12.7 mph 18.4 mph N/A   Scattered Clouds
10:35 AM 48.2 °F - 42.8 °F 82% 29.52 in 10.0 mi South 11.5 mph 20.7 mph N/A   Mostly Cloudy
10:55 AM 48.2 °F - 42.8 °F 82% 29.50 in 10.0 mi South 11.5 mph 23.0 mph N/A Rain Light Rain
11:15 AM 50.0 °F - 42.8 °F 76% 29.51 in 10.0 mi South 15.0 mph 21.9 mph N/A   Mostly Cloudy
11:35 AM 48.2 °F - 41.0 °F 76% 29.50 in 10.0 mi South 10.4 mph 26.5 mph N/A   Scattered Clouds
11:55 AM 50.0 °F - 42.8 °F 76% 29.50 in 10.0 mi South 12.7 mph 20.7 mph N/A   Scattered Clouds
12:15 PM 50.0 °F - 42.8 °F 76% 29.50 in 10.0 mi South 9.2 mph 16.1 mph N/A   Scattered Clouds
12:35 PM 50.0 °F - 42.8 °F 76% 29.50 in 10.0 mi South 13.8 mph 24.2 mph N/A   Scattered Clouds
12:55 PM 50.0 °F - 42.8 °F 76% 29.49 in 10.0 mi South 13.8 mph 26.5 mph N/A   Partly Cloudy
1:15 PM 48.2 °F - 42.8 °F 82% 29.49 in 9.0 mi South 11.5 mph 24.2 mph N/A Rain Light Rain
1:35 PM 48.2 °F - 42.8 °F 82% 29.49 in 9.0 mi SSE 8.1 mph 18.4 mph N/A Rain Light Rain
1:55 PM 50.0 °F - 42.8 °F 76% 29.47 in 10.0 mi South 10.4 mph 19.6 mph N/A   Partly Cloudy
2:15 PM 50.0 °F - 42.8 °F 76% 29.47 in 10.0 mi South 9.2 mph 19.6 mph N/A   Clear
2:35 PM 50.0 °F - 42.8 °F 76% 29.47 in 10.0 mi South 16.1 mph 31.1 mph N/A   Clear
2:55 PM 50.0 °F - 44.6 °F 82% 29.47 in 8.0 mi South 12.7 mph 24.2 mph N/A   Clear
3:15 PM 48.2 °F - 44.6 °F 87% 29.48 in 5.0 mi South 15.0 mph 21.9 mph N/A Rain Light Rain
3:35 PM 48.2 °F - 44.6 °F 87% 29.49 in 3.0 mi South 11.5 mph 18.4 mph 0.01 in Rain Rain
3:55 PM 48.2 °F - 44.6 °F 87% 29.48 in 10.0 mi South 6.9 mph - 0.02 in Rain Light Rain
4:15 PM 48.2 °F - 44.6 °F 87% 29.47 in 10.0 mi South 5.8 mph 18.4 mph N/A   Scattered Clouds
4:35 PM 48.2 °F - 44.6 °F 87% 29.49 in 10.0 mi South 9.2 mph - N/A   Mostly Cloudy
4:55 PM 48.2 °F - 44.6 °F 87% 29.49 in 9.0 mi South 9.2 mph 20.7 mph N/A Rain Light Rain
5:15 PM 48.2 °F - 44.6 °F 87% 29.50 in 4.0 mi SW 5.8 mph - 0.01 in Rain Rain
5:35 PM 46.4 °F 42.9 °F 44.6 °F 93% 29.51 in 3.0 mi SW 6.9 mph - 0.05 in Rain Heavy Rain
5:55 PM 46.4 °F 42.9 °F 44.6 °F 93% 29.47 in 4.0 mi ESE 6.9 mph - 0.11 in Rain Rain
6:15 PM 46.4 °F 42.4 °F 44.6 °F 93% 29.46 in 7.0 mi SSW 8.1 mph - N/A Rain Light Rain
6:35 PM 46.4 °F 40.7 °F 44.6 °F 93% 29.46 in 10.0 mi South 12.7 mph 17.3 mph N/A Rain Light Rain
6:55 PM 46.4 °F 41.9 °F 44.6 °F 93% 29.44 in 5.0 mi South 9.2 mph - N/A Rain Light Rain
7:15 PM 46.4 °F 41.5 °F 44.6 °F 93% 29.43 in 7.0 mi South 10.4 mph 19.6 mph N/A Rain Light Rain
7:35 PM 46.4 °F 41.9 °F 44.6 °F 93% 29.41 in 5.0 mi South 9.2 mph 19.6 mph N/A Rain Light Rain
7:55 PM 46.4 °F 42.4 °F 44.6 °F 93% 29.40 in 5.0 mi South 8.1 mph - 0.01 in Rain Light Rain
8:15 PM 48.2 °F - 44.6 °F 87% 29.38 in 10.0 mi South 8.1 mph - N/A   Partly Cloudy
8:35 PM 48.2 °F - 41.0 °F 76% 29.35 in 10.0 mi SSE 10.4 mph 26.5 mph 0.01 in   Clear
8:55 PM 48.2 °F - 41.0 °F 76% 29.35 in 10.0 mi SSE 9.2 mph 18.4 mph 0.01 in   Clear
9:15 PM 48.2 °F - 41.0 °F 76% 29.34 in 10.0 mi South 9.2 mph 17.3 mph N/A   Clear
9:35 PM 50.0 °F - 41.0 °F 71% 29.35 in 10.0 mi South 6.9 mph 18.4 mph N/A   Scattered Clouds
9:55 PM 50.0 °F - 39.2 °F 66% 29.33 in 10.0 mi South 9.2 mph 20.7 mph N/A   Partly Cloudy
10:15 PM 50.0 °F - 39.2 °F 66% 29.31 in 10.0 mi South 9.2 mph 24.2 mph N/A   Clear
10:35 PM 50.0 °F - 39.2 °F 66% 29.30 in 10.0 mi South 11.5 mph 19.6 mph N/A   Clear
11:15 PM 50.0 °F - 39.2 °F 66% 29.27 in 10.0 mi South 9.2 mph 25.3 mph N/A   Mostly Cloudy
11:35 PM 48.2 °F - 39.2 °F 71% 29.26 in 10.0 mi SSE 10.4 mph 24.2 mph N/A   Partly Cloudy
11:55 PM 48.2 °F - 39.2 °F 71% 29.24 in 10.0 mi SSE 12.7 mph 27.6 mph N/A Rain Light Rain